createdAt,value
2022-09-23T00:01:36.062Z,101232.20
2022-09-23T00:04:04.883Z,101235.52
2022-09-23T00:06:33.609Z,101232.80
2022-09-23T00:09:02.464Z,101233.90
2022-09-23T00:11:31.262Z,101233.13
2022-09-23T00:14:00.859Z,101234.77
2022-09-23T00:16:34.463Z,101233.94
2022-09-23T00:19:04.781Z,101235.67
2022-09-23T00:21:33.405Z,101232.56
2022-09-23T00:24:02.940Z,101231.70
2022-09-23T00:26:31.650Z,101230.44
2022-09-23T00:29:00.486Z,101229.48
2022-09-23T00:31:29.166Z,101226.45
2022-09-23T00:34:00.723Z,101228.92
2022-09-23T00:36:30.918Z,101233.22
2022-09-23T00:39:00.361Z,101230.64
2022-09-23T00:41:29.199Z,101233.73
2022-09-23T00:43:59.525Z,101236.17
2022-09-23T00:46:38.162Z,101237.88
2022-09-23T00:49:16.478Z,101235.77
2022-09-23T00:51:51.011Z,101232.68
2022-09-23T00:54:20.381Z,101234.33
2022-09-23T00:56:49.083Z,101233.79
2022-09-23T00:59:18.788Z,101232.72
2022-09-23T01:01:49.988Z,101232.08
2022-09-23T01:04:19.752Z,101229.92
2022-09-23T01:06:48.866Z,101228.96
2022-09-23T01:09:17.938Z,101232.59
2022-09-23T01:12:13.178Z,101231.99
2022-09-23T01:15:19.610Z,101234.89
2022-09-23T01:18:29.782Z,101231.80
2022-09-23T01:21:01.218Z,101231.98
2022-09-23T01:23:48.035Z,101232.86
2022-09-23T01:26:28.801Z,101238.02
2022-09-23T01:29:34.673Z,101242.78
2022-09-23T01:32:31.728Z,101245.55
2022-09-23T01:35:05.503Z,101241.98
2022-09-23T01:37:51.648Z,101242.75
2022-09-23T01:40:27.643Z,101247.13
2022-09-23T01:43:11.957Z,101243.88
2022-09-23T01:45:53.936Z,101245.83
2022-09-23T01:48:32.953Z,101242.73
2022-09-23T01:51:10.040Z,101244.89
2022-09-23T01:53:57.375Z,101246.10
2022-09-23T01:56:52.191Z,101245.31
2022-09-23T01:59:26.911Z,101246.90
2022-09-23T02:02:00.268Z,101247.97
2022-09-23T02:04:33.815Z,101247.08
2022-09-23T02:07:35.557Z,101247.27
2022-09-23T02:10:25.841Z,101243.95
2022-09-23T02:13:00.334Z,101241.70
2022-09-23T02:15:43.258Z,101242.07
2022-09-23T02:18:29.293Z,101239.63
2022-09-23T02:21:02.821Z,101241.38
2022-09-23T02:23:44.989Z,101244.88
2022-09-23T02:26:20.113Z,101251.17
2022-09-23T02:29:01.490Z,101251.58
2022-09-23T02:31:41.361Z,101253.70
2022-09-23T02:34:19.102Z,101254.05
2022-09-23T02:37:24.151Z,101256.11
2022-09-23T02:40:01.297Z,101254.92
2022-09-23T02:42:50.643Z,101256.37
2022-09-23T02:45:19.553Z,101256.25
2022-09-23T02:47:53.746Z,101255.09
2022-09-23T02:50:22.756Z,101251.58
2022-09-23T02:52:51.651Z,101251.56
2022-09-23T02:55:22.792Z,101249.30
2022-09-23T02:57:52.836Z,101250.88
2022-09-23T03:00:21.496Z,101253.06
2022-09-23T03:03:20.988Z,101250.39
2022-09-23T03:05:59.959Z,101252.05
2022-09-23T03:08:54.308Z,101255.24
2022-09-23T03:11:23.054Z,101257.27
2022-09-23T03:14:18.219Z,101257.67
2022-09-23T03:16:59.686Z,101257.42
2022-09-23T03:19:41.890Z,101257.48
2022-09-23T03:22:37.818Z,101254.42
2022-09-23T03:25:11.449Z,101254.46
2022-09-23T03:27:42.740Z,101253.16
2022-09-23T03:30:12.082Z,101253.23
2022-09-23T03:32:45.308Z,101252.96
2022-09-23T03:35:14.571Z,101251.16
2022-09-23T03:37:48.826Z,101250.20
2022-09-23T03:40:31.347Z,101252.44
2022-09-23T03:43:01.819Z,101252.12
2022-09-23T03:45:33.357Z,101252.11
2022-09-23T03:48:02.880Z,101249.86
2022-09-23T03:50:31.474Z,101252.11
2022-09-23T03:53:00.171Z,101248.91
2022-09-23T03:55:28.859Z,101246.28
2022-09-23T03:57:57.456Z,101245.30
2022-09-23T04:00:26.330Z,101248.75
2022-09-23T04:02:54.895Z,101248.99
2022-09-23T04:05:23.696Z,101251.92
2022-09-23T04:07:52.689Z,101257.81
2022-09-23T04:10:21.632Z,101262.95
2022-09-23T04:12:50.371Z,101264.58
2022-09-23T04:15:19.263Z,101265.83
2022-09-23T04:17:47.856Z,101267.34
2022-09-23T04:20:17.650Z,101272.66
2022-09-23T04:22:46.432Z,101273.54
2022-09-23T04:25:15.675Z,101277.79
2022-09-23T04:27:44.233Z,101283.65
2022-09-23T04:30:13.941Z,101284.59
2022-09-23T04:32:42.511Z,101285.81
2022-09-23T04:35:11.114Z,101282.29
2022-09-23T04:37:40.310Z,101290.06
2022-09-23T04:40:10.108Z,101291.20
2022-09-23T04:42:38.794Z,101291.88
2022-09-23T04:45:08.714Z,101294.92
2022-09-23T04:47:37.706Z,101296.44
2022-09-23T04:50:06.940Z,101298.80
2022-09-23T04:52:35.499Z,101299.54
2022-09-23T04:55:09.112Z,101297.20
2022-09-23T04:57:39.939Z,101299.52
2022-09-23T05:00:09.668Z,101299.05
2022-09-23T05:02:44.063Z,101296.95
2022-09-23T05:05:13.577Z,101285.19
2022-09-23T05:07:42.209Z,101295.98
2022-09-23T05:10:11.150Z,101297.61
2022-09-23T05:12:39.722Z,101296.65
2022-09-23T05:15:08.865Z,101297.42
2022-09-23T05:17:37.728Z,101300.77
2022-09-23T05:20:07.041Z,101299.53
2022-09-23T05:22:35.902Z,101290.85
2022-09-23T05:25:05.220Z,101284.62
2022-09-23T05:27:33.905Z,101295.11
2022-09-23T05:30:02.701Z,101297.47
2022-09-23T05:32:32.290Z,101298.23
2022-09-23T05:35:01.112Z,101294.34
2022-09-23T05:37:29.778Z,101292.42
2022-09-23T05:39:58.567Z,101290.06
2022-09-23T05:42:27.033Z,101292.77
2022-09-23T05:44:56.756Z,101296.52
2022-09-23T05:47:25.635Z,101297.45
2022-09-23T05:50:01.754Z,101300.52
2022-09-23T05:52:30.587Z,101303.46
2022-09-23T05:54:59.068Z,101307.26
2022-09-23T05:57:27.902Z,101309.84
2022-09-23T05:59:56.440Z,101310.05
2022-09-23T06:02:25.502Z,101312.45
2022-09-23T06:04:54.545Z,101311.73
2022-09-23T06:07:23.235Z,101315.77
2022-09-23T06:09:54.384Z,101314.86
2022-09-23T06:12:23.765Z,101315.73
2022-09-23T06:14:53.457Z,101316.01
2022-09-23T06:17:21.855Z,101313.48
2022-09-23T06:19:50.747Z,101312.74
2022-09-23T06:22:19.343Z,101310.77
2022-09-23T06:24:47.914Z,101313.36
2022-09-23T06:27:16.411Z,101311.34
2022-09-23T06:29:45.299Z,101308.98
2022-09-23T06:32:14.101Z,101310.33
2022-09-23T06:34:51.716Z,101311.23
2022-09-23T06:37:21.057Z,101307.42
2022-09-23T06:39:49.983Z,101311.58
2022-09-23T06:42:18.463Z,101311.13
2022-09-23T06:44:47.069Z,101311.91
2022-09-23T06:47:15.821Z,101315.38
2022-09-23T06:49:44.507Z,101316.78
2022-09-23T06:52:13.622Z,101317.64
2022-09-23T06:54:42.610Z,101319.84
2022-09-23T06:57:11.097Z,101322.76
2022-09-23T06:59:39.783Z,101319.52
2022-09-23T07:02:12.787Z,101319.69
2022-09-23T07:04:41.645Z,101322.56
2022-09-23T07:07:12.090Z,101321.44
2022-09-23T07:09:40.772Z,101320.59
2022-09-23T07:12:09.664Z,101324.31
2022-09-23T07:14:38.760Z,101321.20
2022-09-23T07:17:07.740Z,101323.75
2022-09-23T07:19:36.739Z,101320.10
2022-09-23T07:22:06.036Z,101320.98
2022-09-23T07:24:34.736Z,101319.83
2022-09-23T07:27:03.347Z,101316.45
2022-09-23T07:29:41.642Z,101319.25
2022-09-23T07:32:14.873Z,101315.63
2022-09-23T07:34:43.923Z,101314.88
2022-09-23T07:37:12.593Z,101317.50
2022-09-23T07:39:42.324Z,101317.68
2022-09-23T07:42:12.763Z,101317.98
2022-09-23T07:44:47.209Z,101323.17
2022-09-23T07:47:18.108Z,101318.85
2022-09-23T07:49:46.878Z,101321.63
2022-09-23T07:52:15.667Z,101325.27
2022-09-23T07:54:48.194Z,101326.31
2022-09-23T07:57:17.099Z,101325.26
2022-09-23T07:59:45.634Z,101322.55
2022-09-23T08:02:16.911Z,101321.48
2022-09-23T08:04:46.809Z,101318.92
2022-09-23T08:07:16.893Z,101316.13
2022-09-23T08:09:46.339Z,101318.55
2022-09-23T08:12:17.891Z,101321.65
2022-09-23T08:14:46.646Z,101321.42
2022-09-23T08:17:15.553Z,101320.95
2022-09-23T08:19:44.239Z,101320.42
2022-09-23T08:22:13.013Z,101311.46
2022-09-23T08:24:41.408Z,101308.98
2022-09-23T08:27:11.322Z,101301.64
2022-09-23T08:29:40.116Z,101305.33
2022-09-23T08:32:08.803Z,101306.52
2022-09-23T08:34:37.592Z,101313.33
2022-09-23T08:37:10.963Z,101309.76
2022-09-23T08:39:39.672Z,101305.78
2022-09-23T08:42:32.962Z,101308.90
2022-09-23T08:45:04.435Z,101306.64
2022-09-23T08:47:55.910Z,101304.10
2022-09-23T08:50:29.778Z,101306.36
2022-09-23T08:53:10.077Z,101304.98
2022-09-23T08:55:42.445Z,101301.52
2022-09-23T08:58:30.075Z,101303.41
2022-09-23T09:01:19.491Z,101288.98
2022-09-23T09:03:49.451Z,101297.35
2022-09-23T09:06:27.683Z,101293.01
2022-09-23T09:08:59.904Z,101294.05
2022-09-23T09:11:37.834Z,101287.83
2022-09-23T09:14:36.627Z,101289.22
2022-09-23T09:17:22.640Z,101282.52
2022-09-23T09:20:03.813Z,101278.65
2022-09-23T09:25:20.331Z,101286.08
2022-09-23T09:27:49.332Z,101288.08
2022-09-23T09:30:18.473Z,101286.21
2022-09-23T09:33:01.142Z,101286.59
2022-09-23T09:35:42.002Z,101285.64
2022-09-23T09:38:10.491Z,101289.60
2022-09-23T09:40:46.789Z,101292.81
2022-09-23T09:43:23.888Z,101289.18
2022-09-23T09:46:23.127Z,101290.00
2022-09-23T09:49:02.824Z,101285.99
2022-09-23T09:51:31.682Z,101283.18
2022-09-23T09:54:27.947Z,101282.19
2022-09-23T09:56:56.642Z,101277.25
2022-09-23T09:59:28.094Z,101277.35
2022-09-23T10:02:33.431Z,101278.73
2022-09-23T10:05:08.031Z,101271.66
2022-09-23T10:07:36.740Z,101272.83
2022-09-23T10:10:35.027Z,101270.01
2022-09-23T10:13:15.806Z,101264.34
2022-09-23T10:15:45.552Z,101269.06
2022-09-23T10:18:27.615Z,101265.10
2022-09-23T10:21:16.990Z,101266.06
2022-09-23T10:23:48.330Z,101261.23
2022-09-23T10:26:19.787Z,101256.45
2022-09-23T10:28:55.858Z,101256.30
2022-09-23T10:31:35.606Z,101254.48
2022-09-23T10:34:25.359Z,101253.89
2022-09-23T10:37:08.383Z,101256.17
2022-09-23T10:39:55.708Z,101255.81
2022-09-23T10:42:42.744Z,101255.93
2022-09-23T10:45:43.883Z,101259.30
2022-09-23T10:48:13.178Z,101252.40
2022-09-23T10:50:49.246Z,101246.94
2022-09-23T10:53:24.042Z,101243.20
2022-09-23T10:56:17.265Z,101236.11
2022-09-23T10:58:46.431Z,101235.39
2022-09-23T11:01:30.153Z,101237.41
2022-09-23T11:04:19.215Z,101238.19
2022-09-23T11:07:15.574Z,101236.77
2022-09-23T11:10:03.106Z,101235.96
2022-09-23T11:12:51.055Z,101229.90
2022-09-23T11:15:39.490Z,101228.66
2022-09-23T11:18:45.875Z,101230.13
2022-09-23T11:21:46.297Z,101228.09
2022-09-23T11:24:36.385Z,101228.61
2022-09-23T11:27:26.578Z,101224.19
2022-09-23T11:30:24.535Z,101221.77
2022-09-23T11:33:14.535Z,101219.64
2022-09-23T11:36:09.139Z,101211.09
2022-09-23T11:38:44.316Z,101211.02
2022-09-23T11:41:26.395Z,101206.90
2022-09-23T11:44:09.088Z,101205.80
2022-09-23T11:47:10.147Z,101200.81
2022-09-23T11:49:48.243Z,101203.73
2022-09-23T11:52:32.905Z,101202.40
2022-09-23T11:55:21.991Z,101199.09
2022-09-23T11:58:13.204Z,101194.89
2022-09-23T12:01:08.817Z,101192.36
2022-09-23T12:04:16.857Z,101190.98
2022-09-23T12:06:53.419Z,101189.15
2022-09-23T12:09:47.269Z,101186.91
2022-09-23T12:12:30.830Z,101186.33
2022-09-23T12:15:08.665Z,101182.91
2022-09-23T12:18:23.294Z,101181.02
2022-09-23T12:21:22.127Z,101182.21
2022-09-23T12:24:18.996Z,101182.31
2022-09-23T12:26:52.509Z,101184.54
2022-09-23T12:29:21.518Z,101182.67
2022-09-23T12:31:50.494Z,101182.92
2022-09-23T12:34:41.697Z,101182.19
2022-09-23T12:37:10.291Z,101180.40
2022-09-23T12:39:39.813Z,101178.20
2022-09-23T12:42:20.378Z,101174.21
2022-09-23T12:44:49.776Z,101177.61
2022-09-23T12:47:21.743Z,101169.66
2022-09-23T12:49:51.341Z,101168.05
2022-09-23T12:52:19.925Z,101162.63
2022-09-23T12:54:50.483Z,101163.64
2022-09-23T12:57:34.107Z,101160.52
2022-09-23T13:00:13.175Z,101160.63
2022-09-23T13:03:11.507Z,101160.22
2022-09-23T13:06:32.625Z,101156.86
2022-09-23T13:09:02.977Z,101155.80
2022-09-23T13:11:33.172Z,101158.06
2022-09-23T13:14:04.007Z,101161.55
2022-09-23T13:16:42.466Z,101160.73
2022-09-23T13:19:26.960Z,101164.25
2022-09-23T13:21:59.690Z,101164.07
2022-09-23T13:24:31.624Z,101163.73
2022-09-23T13:27:03.899Z,101162.98
2022-09-23T13:29:44.100Z,101161.30
2022-09-23T13:32:15.367Z,101158.23
2022-09-23T13:34:48.176Z,101157.64
2022-09-23T13:37:26.568Z,101154.83
2022-09-23T13:40:10.878Z,101155.42
2022-09-23T13:42:42.263Z,101154.25
2022-09-23T13:45:17.981Z,101158.20
2022-09-23T13:47:49.302Z,101156.84
2022-09-23T13:50:24.343Z,101154.77
2022-09-23T13:53:00.218Z,101151.20
2022-09-23T13:55:39.507Z,101151.73
2022-09-23T13:58:24.610Z,101153.23
2022-09-23T14:00:53.537Z,101153.20
2022-09-23T14:03:35.888Z,101154.57
2022-09-23T14:06:11.747Z,101148.15
2022-09-23T14:08:43.757Z,101149.40
2022-09-23T14:11:22.639Z,101149.94
2022-09-23T14:13:55.426Z,101153.37
2022-09-23T14:16:26.805Z,101152.61
2022-09-23T14:19:00.589Z,101149.67
2022-09-23T14:21:35.431Z,101147.39
2022-09-23T14:24:21.955Z,101145.98
2022-09-23T14:26:54.266Z,101146.25
2022-09-23T14:29:29.556Z,101145.80
2022-09-23T14:32:02.400Z,101145.17
2022-09-23T14:34:48.509Z,101146.21
2022-09-23T14:37:44.659Z,101150.16
2022-09-23T14:40:17.476Z,101153.26
2022-09-23T14:42:57.312Z,101156.44
2022-09-23T14:45:28.237Z,101157.61
2022-09-23T14:48:13.401Z,101158.36
2022-09-23T14:50:57.042Z,101157.23
2022-09-23T14:53:34.342Z,101158.39
2022-09-23T14:56:15.289Z,101160.90
2022-09-23T14:58:52.640Z,101158.09
2022-09-23T15:01:35.236Z,101159.64
2022-09-23T15:04:13.105Z,101159.05
2022-09-23T15:06:47.619Z,101160.92
2022-09-23T15:09:21.891Z,101161.36
2022-09-23T15:11:58.615Z,101163.17
2022-09-23T15:14:39.187Z,101164.70
2022-09-23T15:17:35.525Z,101166.13
2022-09-23T15:20:08.561Z,101169.90
2022-09-23T15:22:57.266Z,101167.81
2022-09-23T15:25:32.398Z,101167.93
2022-09-23T15:28:17.811Z,101167.46
2022-09-23T15:30:46.257Z,101164.30
2022-09-23T15:33:16.657Z,101170.21
2022-09-23T15:35:49.578Z,101168.38
2022-09-23T15:38:18.546Z,101167.99
2022-09-23T15:40:48.006Z,101169.44
2022-09-23T15:43:21.757Z,101170.73
2022-09-23T15:45:59.231Z,101172.15
2022-09-23T15:48:37.250Z,101174.05
2022-09-23T15:51:07.429Z,101178.44
2022-09-23T15:53:38.513Z,101180.96
2022-09-23T15:56:07.239Z,101178.13
2022-09-23T15:58:36.321Z,101178.72
2022-09-23T16:01:06.179Z,101178.80
2022-09-23T16:03:35.343Z,101181.66
2022-09-23T16:06:06.503Z,101183.38
2022-09-23T16:08:35.066Z,101181.97
2022-09-23T16:11:03.745Z,101188.94
2022-09-23T16:13:32.437Z,101195.96
2022-09-23T16:16:01.400Z,101200.88
2022-09-23T16:18:30.220Z,101204.92
2022-09-23T16:20:59.956Z,101204.09
2022-09-23T16:23:40.693Z,101206.51
2022-09-23T16:26:09.178Z,101208.12
2022-09-23T16:28:38.285Z,101207.70
2022-09-23T16:31:07.130Z,101208.09
2022-09-23T16:33:36.111Z,101206.31
2022-09-23T16:36:06.190Z,101207.52
2022-09-23T16:38:34.880Z,101205.89
2022-09-23T16:41:03.785Z,101208.63
2022-09-23T16:43:39.866Z,101211.11
2022-09-23T16:46:14.846Z,101213.16
2022-09-23T16:48:48.297Z,101216.11
2022-09-23T16:51:23.515Z,101215.80
2022-09-23T16:53:52.726Z,101218.58
2022-09-23T16:56:28.263Z,101218.05
2022-09-23T16:58:57.533Z,101223.98
2022-09-23T17:01:47.364Z,101225.35
2022-09-23T17:04:17.757Z,101226.05
2022-09-23T17:06:50.889Z,101227.75
2022-09-23T17:09:21.988Z,101228.57
2022-09-23T17:11:59.632Z,101229.39
2022-09-23T17:14:31.585Z,101233.77
2022-09-23T17:17:00.225Z,101231.76
2022-09-23T17:19:29.189Z,101234.14
2022-09-23T17:21:57.813Z,101237.61
2022-09-23T17:24:26.722Z,101239.86
2022-09-23T17:26:55.490Z,101239.45
2022-09-23T17:29:25.581Z,101240.19
2022-09-23T17:31:54.679Z,101241.41
2022-09-23T17:34:24.455Z,101239.09
2022-09-23T17:36:53.212Z,101239.08
2022-09-23T17:39:23.229Z,101239.70
2022-09-23T17:41:55.795Z,101240.63
2022-09-23T17:44:25.105Z,101240.80
2022-09-23T17:46:53.643Z,101237.40
2022-09-23T17:49:24.834Z,101237.84
2022-09-23T17:51:54.236Z,101238.44
2022-09-23T17:54:23.437Z,101236.17
2022-09-23T17:56:52.429Z,101239.03
2022-09-23T17:59:21.624Z,101239.48
2022-09-23T18:01:50.514Z,101238.32
2022-09-23T18:04:19.836Z,101237.00
2022-09-23T18:06:48.872Z,101236.70
2022-09-23T18:09:18.013Z,101239.35
2022-09-23T18:11:49.593Z,101239.83
2022-09-23T18:14:21.527Z,101244.95
2022-09-23T18:16:52.405Z,101246.62
2022-09-23T18:19:23.497Z,101249.58
2022-09-23T18:21:54.955Z,101243.54
2022-09-23T18:24:32.662Z,101243.27
2022-09-23T18:27:03.289Z,101240.71
2022-09-23T18:29:33.691Z,101242.09
2022-09-23T18:32:03.361Z,101244.27
2022-09-23T18:34:33.140Z,101244.80
2022-09-23T18:37:02.203Z,101243.28
2022-09-23T18:39:31.235Z,101246.31
2022-09-23T18:42:00.659Z,101250.58
2022-09-23T18:44:29.422Z,101251.19
2022-09-23T18:46:58.312Z,101251.50
2022-09-23T18:49:45.129Z,101253.17
2022-09-23T18:52:14.113Z,101254.14
2022-09-23T18:54:44.380Z,101259.09
2022-09-23T18:57:15.165Z,101259.34
2022-09-23T18:59:44.831Z,101262.96
2022-09-23T19:02:15.882Z,101263.23
2022-09-23T19:04:44.718Z,101261.98
2022-09-23T19:07:13.509Z,101260.98
2022-09-23T19:09:42.297Z,101262.05
2022-09-23T19:12:10.983Z,101259.66
2022-09-23T19:14:40.115Z,101264.46
2022-09-23T19:17:09.277Z,101270.27
2022-09-23T19:19:38.272Z,101267.38
2022-09-23T19:22:07.164Z,101271.21
2022-09-23T19:24:36.161Z,101274.41
2022-09-23T19:27:04.961Z,101275.90
2022-09-23T19:29:33.941Z,101277.33
2022-09-23T19:32:03.075Z,101278.51
2022-09-23T19:34:32.915Z,101279.45
2022-09-23T19:37:05.120Z,101276.77
2022-09-23T19:39:35.210Z,101277.80
2022-09-23T19:42:04.340Z,101278.40
2022-09-23T19:44:33.128Z,101277.23
2022-09-23T19:47:02.060Z,101277.70
2022-09-23T19:49:31.941Z,101275.72
2022-09-23T19:52:00.924Z,101274.46
2022-09-23T19:54:29.820Z,101274.56
2022-09-23T19:56:59.793Z,101276.71
2022-09-23T19:59:28.726Z,101274.85
2022-09-23T20:01:57.394Z,101276.77
2022-09-23T20:04:26.653Z,101275.08
2022-09-23T20:06:55.521Z,101282.63
2022-09-23T20:09:24.397Z,101283.20
2022-09-23T20:11:53.384Z,101281.38
2022-09-23T20:14:23.011Z,101281.58
2022-09-23T20:16:52.705Z,101279.27
2022-09-23T20:19:22.249Z,101278.52
2022-09-23T20:22:11.279Z,101279.55
2022-09-23T20:24:40.166Z,101275.88
2022-09-23T20:27:09.264Z,101275.71
2022-09-23T20:29:38.356Z,101276.00
2022-09-23T20:32:07.671Z,101275.36
2022-09-23T20:34:36.647Z,101271.71
2022-09-23T20:37:06.702Z,101273.29
2022-09-23T20:39:35.262Z,101273.11
2022-09-23T20:42:04.576Z,101273.14
2022-09-23T20:44:34.162Z,101275.58
2022-09-23T20:47:03.515Z,101271.89
2022-09-23T20:49:34.609Z,101269.76
2022-09-23T20:52:03.909Z,101272.40
2022-09-23T20:54:32.804Z,101278.77
2022-09-23T20:57:01.814Z,101273.14
2022-09-23T20:59:30.821Z,101274.95
2022-09-23T21:01:59.747Z,101277.64
2022-09-23T21:04:30.136Z,101277.27
2022-09-23T21:06:59.202Z,101272.82
2022-09-23T21:09:29.374Z,101269.60
2022-09-23T21:11:58.218Z,101268.80
2022-09-23T21:14:26.917Z,101272.64
2022-09-23T21:16:55.484Z,101272.77
2022-09-23T21:19:25.606Z,101275.36
2022-09-23T21:21:54.600Z,101274.77
2022-09-23T21:27:12.657Z,101272.00
2022-09-23T21:29:41.137Z,101271.81
2022-09-23T21:32:10.879Z,101269.92
2022-09-23T21:34:39.639Z,101278.27
2022-09-23T21:37:08.877Z,101278.78
2022-09-23T21:39:37.523Z,101282.94
2022-09-23T21:42:06.725Z,101280.66
2022-09-23T21:44:35.817Z,101281.02
2022-09-23T21:47:04.802Z,101280.09
2022-09-23T21:49:33.709Z,101278.21
2022-09-23T21:52:03.027Z,101278.02
2022-09-23T21:54:32.614Z,101278.91
2022-09-23T21:57:01.399Z,101281.96
2022-09-23T21:59:30.295Z,101283.41
2022-09-23T22:01:59.797Z,101283.19
2022-09-23T22:04:29.342Z,101279.98
2022-09-23T22:07:00.711Z,101278.87
2022-09-23T22:09:29.346Z,101278.73
2022-09-23T22:12:08.368Z,101274.05
2022-09-23T22:14:37.367Z,101274.44
2022-09-23T22:17:08.760Z,101274.05
2022-09-23T22:19:45.624Z,101270.87
2022-09-23T22:22:18.129Z,101271.05
2022-09-23T22:24:48.262Z,101271.66
2022-09-23T22:27:18.953Z,101273.77
2022-09-23T22:30:06.454Z,101273.36
2022-09-23T22:32:41.282Z,101273.23
2022-09-23T22:35:12.200Z,101269.41
2022-09-23T22:37:41.012Z,101267.28
2022-09-23T22:40:14.632Z,101265.14
2022-09-23T22:42:43.915Z,101263.73
2022-09-23T22:45:14.461Z,101262.52
2022-09-23T22:47:45.915Z,101260.35
2022-09-23T22:50:15.307Z,101260.09
2022-09-23T22:52:45.524Z,101259.70
2022-09-23T22:55:14.203Z,101262.44
2022-09-23T22:57:43.096Z,101262.04
2022-09-23T23:00:12.946Z,101263.95
2022-09-23T23:02:42.829Z,101266.02
2022-09-23T23:05:12.254Z,101268.91
2022-09-23T23:07:41.629Z,101273.92
2022-09-23T23:10:10.746Z,101279.77
2022-09-23T23:12:40.049Z,101279.62
2022-09-23T23:15:12.251Z,101280.23
2022-09-23T23:17:43.758Z,101280.88
2022-09-23T23:20:13.492Z,101279.60
2022-09-23T23:22:42.451Z,101276.96
2022-09-23T23:25:11.857Z,101278.14
2022-09-23T23:27:40.568Z,101276.59
2022-09-23T23:30:10.124Z,101275.29
2022-09-23T23:32:38.735Z,101278.59
2022-09-23T23:35:09.089Z,101282.98
2022-09-23T23:37:38.608Z,101281.55
2022-09-23T23:40:08.235Z,101276.47
2022-09-23T23:42:37.202Z,101275.27
2022-09-23T23:45:06.693Z,101277.14
2022-09-23T23:47:36.380Z,101274.59
2022-09-23T23:50:05.993Z,101274.23
2022-09-23T23:52:34.882Z,101271.13
2022-09-23T23:55:04.082Z,101267.95
2022-09-23T23:57:32.869Z,101267.11
